Terminal Aerodrome Forecast
Issued by NWS

Home | Current Version | Previous Version | Text Only | Print | Product List | Glossary On
Versions: 1 2 3 4 5 6 7 8 9 10 11 12 13
027
FTUS45 KTFX 230520
TAFGTF
TAF
KGTF 230520Z 2306/2406 10008KT P6SM SKC
     FM230900 18008KT 6SM FU SKC
     FM231800 25010KT P6SM FEW250=

USA.gov is the U.S. government's official web portal to all federal, state and local government web resources and services.